Time;durP1;ratioP1;P1;durP2;ratioP2;P2;SDS_P1;SDS_P2;PMS_P1;PMS_P2;Temp;Humidity;BMP_temperature;BMP_pressure;BME280_temperature;BME280_humidity;BME280_pressure;Samples;Min_cycle;Max_cycle;Signal;HPM_P1;HPM_P2
2023/12/31 00:02:26;;;;;;;5.50;2.00;;;;;;;3.58;86.36;100306.04;110875;246;39435;-58
2023/12/31 00:05:07;;;;;;;3.50;1.80;;;;;;;3.49;86.53;100305.17;110886;245;38612;-57
2023/12/31 00:07:44;;;;;;;3.40;1.70;;;;;;;3.44;86.63;100299.00;110919;246;39638;-59
2023/12/31 00:10:33;;;;;;;4.10;1.70;;;;;;;3.42;86.72;100298.01;110937;245;40496;-55
2023/12/31 00:13:07;;;;;;;4.90;2.00;;;;;;;3.35;86.76;100293.11;110885;245;39258;-56
2023/12/31 00:15:45;;;;;;;;;;;;;;;3.27;86.75;100291.29;110899;245;40971;-60
2023/12/31 00:18:24;;;;;;;3.50;1.70;;;;;;;3.17;86.81;100294.94;110923;245;40179;-55
2023/12/31 00:21:06;;;;;;;4.30;2.10;;;;;;;3.05;86.84;100294.46;110889;245;41217;-55
2023/12/31 00:23:45;;;;;;;4.60;2.00;;;;;;;2.95;86.90;100294.15;110929;245;39332;-54
2023/12/31 00:26:26;;;;;;;5.80;2.70;;;;;;;2.85;86.96;100293.30;110977;245;38965;-59
2023/12/31 00:29:08;;;;;;;5.50;2.40;;;;;;;2.75;87.10;100294.96;110937;245;40771;-59
2023/12/31 00:31:50;;;;;;;6.50;3.10;;;;;;;2.69;87.09;100299.63;110978;245;40408;-61
2023/12/31 00:34:28;;;;;;;5.40;3.10;;;;;;;2.59;87.02;100302.50;110927;245;39420;-57
2023/12/31 00:37:09;;;;;;;5.50;2.90;;;;;;;2.46;87.08;100304.37;110959;245;39382;-54
2023/12/31 00:39:48;;;;;;;6.20;3.20;;;;;;;2.34;87.23;100305.67;110965;245;39590;-58
2023/12/31 00:42:28;;;;;;;6.20;2.80;;;;;;;2.24;87.27;100309.44;110904;245;39615;-59
2023/12/31 00:45:06;;;;;;;5.50;2.80;;;;;;;2.12;87.36;100315.34;110957;245;39193;-56
2023/12/31 00:47:45;;;;;;;4.90;3.50;;;;;;;2.05;87.44;100315.60;110949;245;40849;-60
2023/12/31 00:50:28;;;;;;;6.30;2.80;;;;;;;1.97;87.50;100315.81;110968;245;40657;-58
2023/12/31 00:53:06;;;;;;;;;;;;;;;1.89;87.63;100324.50;110918;245;39247;-60
2023/12/31 00:55:43;;;;;;;4.40;2.80;;;;;;;1.79;87.58;100327.42;110958;245;40286;-58
2023/12/31 00:58:24;;;;;;;3.70;2.20;;;;;;;1.71;87.66;100330.00;110952;245;39512;-59
2023/12/31 01:01:00;;;;;;;3.50;2.00;;;;;;;1.70;87.79;100326.57;110949;245;39090;-62
2023/12/31 01:03:39;;;;;;;5.30;2.20;;;;;;;1.69;87.89;100327.89;110924;245;40153;-60
2023/12/31 01:06:18;;;;;;;6.10;2.70;;;;;;;1.68;88.05;100329.74;110946;245;39630;-57
2023/12/31 01:08:58;;;;;;;3.30;2.40;;;;;;;1.65;88.20;100330.84;110957;245;39378;-56
2023/12/31 01:11:36;;;;;;;6.40;2.80;;;;;;;1.60;88.22;100329.34;110933;245;39067;-57
2023/12/31 01:14:16;;;;;;;4.40;2.30;;;;;;;1.61;88.39;100331.23;110937;245;39012;-58
2023/12/31 01:16:55;;;;;;;5.20;2.70;;;;;;;1.60;88.55;100332.56;110912;245;39818;-56
2023/12/31 01:19:34;;;;;;;5.30;2.70;;;;;;;1.65;88.73;100335.19;110959;245;39794;-58
2023/12/31 01:22:09;;;;;;;4.60;2.70;;;;;;;1.70;88.92;100337.40;110927;245;40513;-58
2023/12/31 01:24:49;;;;;;;6.10;2.60;;;;;;;1.74;89.04;100338.78;111091;245;40120;-58
2023/12/31 01:27:28;;;;;;;6.80;4.30;;;;;;;1.83;89.38;100344.40;110985;245;39580;-59
2023/12/31 01:30:06;;;;;;;5.90;3.60;;;;;;;1.94;89.47;100341.35;110966;245;41027;-62
2023/12/31 01:32:48;;;;;;;8.90;4.30;;;;;;;2.00;89.72;100344.11;110933;245;39395;-62
2023/12/31 01:35:31;;;;;;;6.60;4.10;;;;;;;2.04;89.79;100342.91;110940;245;39824;-62
2023/12/31 01:38:08;;;;;;;8.30;4.50;;;;;;;2.13;90.01;100343.50;110883;245;40120;-62
2023/12/31 01:40:54;;;;;;;8.90;4.90;;;;;;;2.28;90.33;100348.46;110982;245;39976;-59
2023/12/31 01:43:30;;;;;;;11.40;4.60;;;;;;;2.38;90.29;100347.25;110870;245;39060;-59
2023/12/31 01:46:10;;;;;;;10.50;5.50;;;;;;;2.47;90.38;100348.58;110899;245;39916;-62
2023/12/31 01:48:48;;;;;;;9.40;5.50;;;;;;;2.58;90.32;100347.21;110905;245;40815;-63
2023/12/31 01:51:35;;;;;;;9.50;5.80;;;;;;;2.60;90.45;100351.09;110969;245;39016;-63
2023/12/31 01:54:20;;;;;;;8.30;5.50;;;;;;;2.59;90.34;100354.53;110944;245;40673;-62
2023/12/31 01:56:57;;;;;;;10.50;5.40;;;;;;;2.57;90.26;100359.56;110947;245;40302;-58
2023/12/31 01:59:36;;;;;;;8.80;6.00;;;;;;;2.56;90.31;100360.23;110929;245;40069;-58
2023/12/31 02:02:16;;;;;;;8.50;5.80;;;;;;;2.56;90.37;100356.41;110889;245;40849;-59
2023/12/31 02:04:57;;;;;;;9.40;5.20;;;;;;;2.57;90.45;100357.40;110932;245;39760;-59
2023/12/31 02:07:37;;;;;;;11.80;6.00;;;;;;;2.59;90.50;100354.42;110909;245;39641;-60
2023/12/31 02:10:13;;;;;;;12.10;6.70;;;;;;;2.63;90.69;100355.09;110928;246;39404;-60
2023/12/31 02:12:54;;;;;;;7.80;5.40;;;;;;;2.65;90.64;100358.08;110890;245;39670;-59
2023/12/31 02:15:44;;;;;;;9.40;6.00;;;;;;;2.63;90.57;100358.48;110924;245;39930;-59
2023/12/31 02:18:21;;;;;;;12.70;6.10;;;;;;;2.57;90.61;100354.27;110894;245;39693;-59
2023/12/31 02:21:00;;;;;;;12.20;6.10;;;;;;;2.48;90.54;100353.27;110914;245;40516;-57
2023/12/31 02:23:39;;;;;;;9.70;6.00;;;;;;;2.38;90.51;100350.95;110919;245;38770;-57
2023/12/31 02:26:19;;;;;;;10.30;6.20;;;;;;;2.28;90.41;100352.56;110905;245;41130;-60
2023/12/31 02:29:02;;;;;;;9.80;5.80;;;;;;;2.14;90.32;100354.61;110907;245;39021;-60
2023/12/31 02:31:44;;;;;;;12.00;6.30;;;;;;;2.03;90.30;100352.20;110910;245;39536;-56
2023/12/31 02:34:24;;;;;;;11.70;7.00;;;;;;;1.97;90.19;100356.52;110951;245;40475;-56
2023/12/31 02:37:02;;;;;;;11.70;6.50;;;;;;;1.90;90.22;100356.08;110940;245;39787;-57
2023/12/31 02:39:37;;;;;;;11.20;7.50;;;;;;;1.81;90.28;100355.40;110963;245;40612;-57
2023/12/31 02:42:17;;;;;;;12.50;7.20;;;;;;;1.75;90.33;100359.28;110971;245;39786;-60
2023/12/31 02:44:54;;;;;;;11.70;6.60;;;;;;;1.65;90.31;100361.08;110909;245;39290;-60
2023/12/31 02:47:32;;;;;;;8.10;5.70;;;;;;;1.56;90.20;100363.12;110917;245;40507;-61
2023/12/31 02:50:10;;;;;;;10.10;6.70;;;;;;;1.47;90.02;100363.73;110908;245;38927;-59
2023/12/31 02:52:44;;;;;;;11.70;6.80;;;;;;;1.36;90.13;100362.90;110936;245;39750;-61
2023/12/31 02:55:22;;;;;;;9.00;6.50;;;;;;;1.26;89.99;100359.34;110971;245;39493;-57
2023/12/31 02:58:09;;;;;;;9.20;6.30;;;;;;;1.16;89.96;100360.37;110925;245;39322;-56
2023/12/31 03:00:55;;;;;;;9.60;6.70;;;;;;;1.08;90.02;100368.91;110924;245;39634;-61
2023/12/31 03:03:31;;;;;;;9.50;7.00;;;;;;;1.03;90.09;100374.45;110878;245;39725;-60
2023/12/31 03:06:09;;;;;;;11.20;7.20;;;;;;;0.98;90.02;100372.88;110982;245;40422;-57
2023/12/31 03:08:47;;;;;;;13.20;6.90;;;;;;;0.92;90.09;100377.67;110960;245;39468;-56
2023/12/31 03:11:28;;;;;;;18.00;9.40;;;;;;;0.85;90.12;100377.81;110983;245;38933;-60
2023/12/31 03:14:04;;;;;;;20.70;9.60;;;;;;;0.76;90.14;100386.14;110926;245;39602;-61
2023/12/31 03:16:50;;;;;;;16.60;10.10;;;;;;;0.69;90.18;100393.49;110938;245;39575;-58
2023/12/31 03:19:26;;;;;;;22.90;11.20;;;;;;;0.62;90.36;100402.39;110911;245;40993;-58
2023/12/31 03:22:03;;;;;;;15.40;10.00;;;;;;;0.55;90.31;100402.89;110865;245;40886;-61
2023/12/31 03:24:47;;;;;;;16.00;10.40;;;;;;;0.46;90.24;100403.50;110938;245;40042;-60
2023/12/31 03:27:29;;;;;;;18.20;9.10;;;;;;;0.35;90.35;100401.56;110912;245;39752;-60
2023/12/31 03:30:06;;;;;;;17.80;9.00;;;;;;;0.26;90.27;100403.39;110956;246;39433;-59
2023/12/31 03:32:43;;;;;;;14.50;8.60;;;;;;;0.18;90.33;100407.42;110979;245;39084;-59
2023/12/31 03:35:23;;;;;;;14.10;8.30;;;;;;;0.11;90.35;100405.17;110909;245;39146;-59
2023/12/31 03:38:04;;;;;;;11.20;7.10;;;;;;;0.08;90.40;100402.98;110944;245;39420;-57
2023/12/31 03:40:42;;;;;;;12.00;7.60;;;;;;;0.05;90.63;100402.80;110938;245;40579;-60
2023/12/31 03:43:25;;;;;;;10.80;6.90;;;;;;;0.07;90.82;100399.64;110312;245;783126;-60
2023/12/31 03:46:08;;;;;;;10.00;6.60;;;;;;;0.11;90.93;100399.66;110914;245;40171;-55
2023/12/31 03:48:44;;;;;;;17.40;7.70;;;;;;;0.19;91.11;100402.77;110902;245;39212;-55
2023/12/31 03:51:26;;;;;;;19.10;8.90;;;;;;;0.24;91.14;100402.88;110968;245;40810;-59
2023/12/31 03:54:08;;;;;;;26.60;11.30;;;;;;;0.27;91.32;100404.73;110912;245;40569;-59
2023/12/31 03:56:46;;;;;;;23.80;11.80;;;;;;;0.28;91.32;100406.24;110912;245;40684;-56
2023/12/31 03:59:26;;;;;;;29.50;13.00;;;;;;;0.28;91.31;100405.19;110987;245;40362;-56
2023/12/31 04:02:04;;;;;;;24.40;11.80;;;;;;;0.28;91.35;100403.64;110923;245;39482;-60
2023/12/31 04:04:44;;;;;;;27.00;11.90;;;;;;;0.24;91.17;100410.48;110946;245;39645;-60
2023/12/31 04:07:21;;;;;;;26.40;11.90;;;;;;;0.21;91.12;100411.40;110888;245;39320;-58
2023/12/31 04:09:59;;;;;;;22.40;11.60;;;;;;;0.19;91.16;100412.11;110961;245;40149;-61
2023/12/31 04:12:41;;;;;;;20.10;10.00;;;;;;;0.19;91.15;100409.34;110905;245;40617;-61
2023/12/31 04:15:18;;;;;;;23.00;10.20;;;;;;;0.17;91.18;100409.26;110932;245;38995;-57
2023/12/31 04:17:54;;;;;;;18.90;10.00;;;;;;;0.16;91.23;100408.61;110916;245;39047;-57
2023/12/31 04:20:28;;;;;;;18.40;8.80;;;;;;;0.13;91.28;100408.20;110900;245;39606;-57
2023/12/31 04:23:03;;;;;;;18.90;8.90;;;;;;;0.12;91.38;100409.34;110934;245;39910;-57
2023/12/31 04:25:40;;;;;;;17.50;9.40;;;;;;;0.14;91.57;100409.73;110962;245;39094;-57
2023/12/31 04:28:17;;;;;;;18.40;9.80;;;;;;;0.18;91.79;100406.02;110901;246;39717;-57
2023/12/31 04:30:57;;;;;;;14.60;8.10;;;;;;;0.19;91.80;100404.54;110932;245;40911;-61
2023/12/31 04:33:37;;;;;;;9.90;7.00;;;;;;;0.17;91.75;100401.65;110953;245;40440;-63
2023/12/31 04:36:11;;;;;;;12.30;7.20;;;;;;;0.12;91.81;100400.84;110972;245;40170;-62
2023/12/31 04:38:50;;;;;;;12.00;6.60;;;;;;;0.10;91.86;100406.45;110921;245;39646;-63
2023/12/31 04:41:25;;;;;;;9.70;6.00;;;;;;;0.12;91.81;100407.05;110848;246;40565;-61
2023/12/31 04:44:01;;;;;;;9.30;5.90;;;;;;;0.09;91.94;100408.65;110905;245;39190;-60
2023/12/31 04:46:41;;;;;;;8.10;4.90;;;;;;;0.07;91.91;100408.48;110878;245;40520;-59
2023/12/31 04:49:21;;;;;;;9.90;6.10;;;;;;;0.05;92.08;100401.80;110947;245;39198;-60
2023/12/31 04:52:03;;;;;;;10.60;5.40;;;;;;;0.06;92.19;100405.71;110915;245;40714;-56
2023/12/31 04:54:41;;;;;;;7.70;5.00;;;;;;;0.10;92.19;100405.99;110887;245;40914;-56
2023/12/31 04:57:22;;;;;;;7.00;5.20;;;;;;;0.07;92.23;100404.06;110926;245;41263;-56
2023/12/31 05:00:02;;;;;;;9.80;5.30;;;;;;;0.05;92.26;100399.09;110932;245;39660;-56
2023/12/31 05:02:42;;;;;;;10.60;5.10;;;;;;;0.02;92.24;100397.77;110943;246;39898;-57
2023/12/31 05:05:21;;;;;;;9.10;4.90;;;;;;;0.01;92.42;100398.16;110957;245;39808;-57
2023/12/31 05:07:59;;;;;;;8.60;5.20;;;;;;;-0.03;92.42;100397.60;110970;245;40435;-57
2023/12/31 05:10:41;;;;;;;10.80;5.70;;;;;;;-0.03;92.29;100391.63;110933;246;41856;-61
2023/12/31 05:13:16;;;;;;;9.00;6.40;;;;;;;-0.08;92.27;100388.79;110950;245;39657;-61
2023/12/31 05:15:55;;;;;;;11.40;6.30;;;;;;;-0.10;92.40;100388.98;110893;245;40335;-60
2023/12/31 05:18:36;;;;;;;10.40;6.30;;;;;;;-0.08;92.41;100394.83;110945;245;39435;-60
2023/12/31 05:21:16;;;;;;;13.40;6.20;;;;;;;-0.09;92.50;100393.84;110935;245;39486;-57
2023/12/31 05:23:52;;;;;;;9.20;6.00;;;;;;;-0.09;92.73;100391.90;110934;245;39975;-59
2023/12/31 05:26:31;;;;;;;11.10;6.00;;;;;;;-0.10;92.67;100391.27;110936;245;40853;-60
2023/12/31 05:29:07;;;;;;;9.50;6.20;;;;;;;-0.06;92.82;100394.33;110911;245;39888;-57
2023/12/31 05:31:47;;;;;;;10.30;6.20;;;;;;;-0.07;92.85;100392.27;110960;245;39825;-57
2023/12/31 05:34:25;;;;;;;10.70;6.40;;;;;;;-0.12;92.84;100386.51;110932;245;39890;-56
2023/12/31 05:37:05;;;;;;;12.20;6.50;;;;;;;-0.13;92.90;100391.36;110938;245;40998;-60
2023/12/31 05:39:43;;;;;;;12.90;7.60;;;;;;;-0.09;93.07;100393.86;110920;245;41144;-60
2023/12/31 05:42:27;;;;;;;15.30;8.20;;;;;;;-0.07;93.09;100397.41;110898;245;39218;-57
2023/12/31 05:45:04;;;;;;;13.30;8.10;;;;;;;0.01;93.33;100398.52;110945;245;42450;-57
2023/12/31 05:47:43;;;;;;;14.60;7.90;;;;;;;0.06;93.56;100402.73;110927;245;39372;-58
2023/12/31 05:50:21;;;;;;;16.10;8.20;;;;;;;0.10;93.59;100410.38;110915;245;40866;-61
2023/12/31 05:53:02;;;;;;;12.70;7.70;;;;;;;0.11;93.59;100405.19;110925;245;40727;-62
2023/12/31 05:55:39;;;;;;;13.40;7.60;;;;;;;0.09;93.61;100409.95;110945;245;39687;-58
2023/12/31 05:58:18;;;;;;;12.80;7.40;;;;;;;0.08;93.52;100412.14;110939;244;40078;-58
2023/12/31 06:00:58;;;;;;;12.90;6.90;;;;;;;0.03;93.34;100410.42;110950;245;41202;-57
2023/12/31 06:03:39;;;;;;;11.20;7.00;;;;;;;-0.05;93.36;100410.90;110937;245;39816;-57
2023/12/31 06:06:20;;;;;;;15.50;8.50;;;;;;;-0.10;93.33;100407.02;110934;245;39501;-59
2023/12/31 06:08:57;;;;;;;11.70;7.60;;;;;;;-0.16;93.44;100405.36;110928;245;39652;-60
2023/12/31 06:11:36;;;;;;;12.60;7.40;;;;;;;-0.21;93.36;100405.42;110999;245;39459;-57
2023/12/31 06:14:15;;;;;;;14.60;7.70;;;;;;;-0.24;93.33;100404.58;110958;245;39367;-57
2023/12/31 06:16:58;;;;;;;13.80;8.10;;;;;;;-0.27;93.53;100400.60;110926;245;39521;-58
2023/12/31 06:19:40;;;;;;;12.70;8.00;;;;;;;-0.28;93.56;100406.83;110878;245;41274;-59
2023/12/31 06:22:19;;;;;;;13.30;8.00;;;;;;;-0.33;93.53;100408.88;110890;245;39310;-61
2023/12/31 06:24:57;;;;;;;11.10;7.80;;;;;;;-0.38;93.56;100406.47;110977;245;39128;-58
2023/12/31 06:27:43;;;;;;;14.50;8.70;;;;;;;-0.40;93.60;100407.48;110913;245;40470;-59
2023/12/31 06:30:27;;;;;;;14.10;8.00;;;;;;;-0.39;93.72;100406.35;110917;245;40021;-59
2023/12/31 06:33:04;;;;;;;13.70;7.70;;;;;;;-0.40;93.67;100406.58;110917;245;39224;-59
2023/12/31 06:35:44;;;;;;;12.60;7.40;;;;;;;-0.45;93.67;100410.14;110943;245;40308;-63
2023/12/31 06:38:19;;;;;;;12.20;7.60;;;;;;;-0.49;93.64;100404.27;110928;245;39758;-63
2023/12/31 06:40:59;;;;;;;12.50;7.30;;;;;;;-0.52;93.72;100405.58;110940;245;39408;-64
2023/12/31 06:43:40;;;;;;;12.60;7.80;;;;;;;-0.54;93.63;100398.66;110920;245;40565;-64
2023/12/31 06:46:16;;;;;;;14.40;7.70;;;;;;;-0.54;93.62;100396.72;110963;245;39775;-63
2023/12/31 06:48:53;;;;;;;12.50;7.80;;;;;;;-0.53;93.65;100395.79;110930;245;39865;-62
2023/12/31 06:51:31;;;;;;;13.90;8.40;;;;;;;-0.57;93.54;100397.50;110936;245;41055;-62
2023/12/31 06:54:09;;;;;;;14.60;8.70;;;;;;;-0.59;93.51;100402.95;110946;245;39343;-62
2023/12/31 06:56:45;;;;;;;15.80;8.30;;;;;;;-0.57;93.64;100403.33;110951;245;41006;-63
2023/12/31 06:59:22;;;;;;;12.60;8.30;;;;;;;-0.55;93.74;100403.91;110899;245;38932;-63
2023/12/31 07:01:58;;;;;;;12.10;8.10;;;;;;;-0.51;93.89;100403.60;110955;245;40947;-64
2023/12/31 07:04:37;;;;;;;14.50;9.20;;;;;;;-0.41;94.17;100399.25;110917;245;39802;-63
2023/12/31 07:07:16;;;;;;;16.00;9.60;;;;;;;-0.30;94.16;100401.21;110912;245;40707;-59
2023/12/31 07:09:58;;;;;;;14.20;8.50;;;;;;;-0.23;94.13;100398.88;110914;245;39055;-62
2023/12/31 07:12:35;;;;;;;16.10;9.40;;;;;;;-0.18;94.25;100396.14;110973;245;39912;-63
2023/12/31 07:15:11;;;;;;;18.60;10.30;;;;;;;-0.06;94.31;100399.66;110975;245;40241;-62
2023/12/31 07:17:51;;;;;;;15.70;9.10;;;;;;;-0.00;94.27;100400.77;110914;245;39675;-64
2023/12/31 07:20:31;;;;;;;14.20;8.90;;;;;;;0.02;94.26;100398.27;110900;245;39719;-58
2023/12/31 07:23:13;;;;;;;14.60;8.90;;;;;;;0.04;94.26;100396.52;110902;245;40002;-56
2023/12/31 07:25:52;;;;;;;18.20;9.40;;;;;;;0.09;94.15;100398.43;110978;245;39244;-60
2023/12/31 07:28:32;;;;;;;16.20;8.80;;;;;;;0.11;94.28;100400.95;110903;245;40240;-57
2023/12/31 07:31:10;;;;;;;16.00;9.40;;;;;;;0.17;94.22;100401.51;110952;245;39591;-60
2023/12/31 07:33:47;;;;;;;14.00;9.40;;;;;;;0.26;94.33;100400.55;110940;245;39222;-62
2023/12/31 07:36:32;;;;;;;16.80;9.90;;;;;;;0.33;94.24;100401.41;110935;245;39538;-60
2023/12/31 07:39:08;;;;;;;14.70;9.30;;;;;;;0.38;94.28;100404.50;110921;245;39506;-64
2023/12/31 07:41:44;;;;;;;14.70;9.50;;;;;;;0.47;94.20;100408.73;110931;245;39315;-63
2023/12/31 07:44:21;;;;;;;13.90;9.70;;;;;;;0.56;94.23;100411.85;110955;245;41098;-63
2023/12/31 07:47:03;;;;;;;13.10;8.60;;;;;;;0.66;94.32;100411.94;110987;246;39222;-63
2023/12/31 07:49:56;;;;;;;15.20;9.50;;;;;;;0.76;94.22;100408.27;110942;245;39506;-61
2023/12/31 07:52:44;;;;;;;14.30;8.60;;;;;;;0.86;94.38;100411.89;110981;246;40243;-61
2023/12/31 07:55:25;;;;;;;14.50;10.40;;;;;;;0.99;94.22;100410.92;111002;245;40359;-62
2023/12/31 07:58:07;;;;;;;17.50;9.80;;;;;;;1.14;94.32;100410.96;110922;246;41015;-63
2023/12/31 08:00:47;;;;;;;19.00;12.00;;;;;;;1.31;94.24;100410.94;110965;245;41515;-59
2023/12/31 08:03:28;;;;;;;19.90;10.80;;;;;;;1.47;94.31;100407.04;110947;245;40697;-58
2023/12/31 08:06:03;;;;;;;22.20;11.20;;;;;;;1.61;94.26;100409.92;110935;245;40140;-58
2023/12/31 08:08:43;;;;;;;17.20;10.80;;;;;;;1.75;94.34;100410.20;111008;245;40281;-59
2023/12/31 08:11:20;;;;;;;16.60;11.30;;;;;;;1.89;94.29;100410.98;110932;245;40973;-59
2023/12/31 08:14:01;;;;;;;17.10;10.90;;;;;;;1.95;94.28;100409.09;110879;245;39759;-59
2023/12/31 08:16:40;;;;;;;21.70;13.20;;;;;;;2.05;94.12;100413.10;110899;245;40189;-66
2023/12/31 08:19:18;;;;;;;20.20;12.20;;;;;;;2.16;94.20;100414.77;110962;245;40447;-63
2023/12/31 08:21:54;;;;;;;34.50;13.90;;;;;;;2.20;94.16;100415.52;110959;245;39131;-62
2023/12/31 08:24:31;;;;;;;19.50;12.20;;;;;;;2.29;94.16;100420.92;110905;245;40322;-61
2023/12/31 08:27:16;;;;;;;20.60;12.10;;;;;;;2.37;93.99;100418.59;110937;245;40182;-57
2023/12/31 08:29:51;;;;;;;18.90;12.00;;;;;;;2.44;93.97;100420.77;110957;245;41282;-57
2023/12/31 08:32:36;;;;;;;20.00;13.00;;;;;;;2.43;94.01;100419.48;110948;245;39626;-59
2023/12/31 08:35:10;;;;;;;;;;;;;;;2.47;93.88;100419.50;111002;245;40853;-63
2023/12/31 08:37:50;;;;;;;21.70;13.10;;;;;;;2.52;93.75;100420.42;110973;245;39014;-62
2023/12/31 08:40:30;;;;;;;15.40;10.90;;;;;;;2.62;93.82;100421.48;111056;245;41632;-63
2023/12/31 08:43:08;;;;;;;19.90;11.50;;;;;;;2.76;93.66;100419.67;110970;245;39254;-63
2023/12/31 08:45:46;;;;;;;19.90;11.80;;;;;;;2.84;93.64;100423.16;110970;245;40999;-58
2023/12/31 08:48:24;;;;;;;18.90;12.30;;;;;;;2.92;93.46;100421.05;110971;245;39509;-58
2023/12/31 08:51:02;;;;;;;18.50;12.60;;;;;;;2.93;93.53;100421.65;110923;245;40195;-58
2023/12/31 08:53:39;;;;;;;18.10;13.10;;;;;;;3.02;93.68;100422.46;110917;245;39452;-59
2023/12/31 08:56:14;;;;;;;20.20;12.80;;;;;;;3.13;93.60;100420.70;110957;245;39812;-63
2023/12/31 08:58:54;;;;;;;20.10;12.80;;;;;;;3.22;93.71;100422.55;111016;245;39434;-63
2023/12/31 09:01:30;;;;;;;17.90;11.90;;;;;;;3.35;93.78;100423.05;110962;245;40203;-60
2023/12/31 09:04:13;;;;;;;22.10;14.10;;;;;;;3.55;93.87;100422.95;110951;245;39503;-58
2023/12/31 09:06:53;;;;;;;19.50;14.50;;;;;;;3.73;93.75;100423.60;110939;245;39416;-60
2023/12/31 09:09:31;;;;;;;21.60;14.90;;;;;;;3.84;93.68;100424.82;110986;245;40387;-59
2023/12/31 09:12:09;;;;;;;23.80;14.90;;;;;;;4.01;93.74;100420.52;110970;245;39065;-62
2023/12/31 09:14:47;;;;;;;21.30;14.10;;;;;;;4.13;93.52;100416.16;110912;245;40722;-59
2023/12/31 09:17:28;;;;;;;20.90;13.70;;;;;;;4.23;93.32;100410.17;110942;245;38823;-59
2023/12/31 09:20:05;;;;;;;19.20;12.90;;;;;;;4.40;93.35;100413.84;110981;245;38915;-61
2023/12/31 09:22:41;;;;;;;19.30;12.60;;;;;;;4.58;93.28;100407.71;110998;245;40205;-60
2023/12/31 09:25:23;;;;;;;21.30;14.00;;;;;;;4.74;93.15;100409.55;110988;245;41212;-60
2023/12/31 09:27:59;;;;;;;22.90;14.20;;;;;;;4.94;93.06;100408.25;110973;245;40469;-59
2023/12/31 09:30:35;;;;;;;18.80;12.90;;;;;;;5.15;92.97;100405.19;110974;245;40033;-60
2023/12/31 09:33:12;;;;;;;21.10;12.70;;;;;;;5.37;92.71;100401.34;110953;245;40678;-61
2023/12/31 09:35:47;;;;;;;20.90;13.60;;;;;;;5.65;92.31;100387.95;110939;245;39816;-58
2023/12/31 09:38:23;;;;;;;19.20;13.20;;;;;;;5.85;92.04;100385.70;110942;245;40566;-54
2023/12/31 09:41:00;;;;;;;16.90;12.60;;;;;;;6.03;91.86;100385.01;110932;245;39404;-57
2023/12/31 09:43:39;;;;;;;21.10;13.40;;;;;;;6.21;91.41;100387.20;110921;245;40400;-60
2023/12/31 09:46:31;;;;;;;17.40;12.60;;;;;;;6.35;90.88;100381.38;110956;245;40211;-58
2023/12/31 09:49:10;;;;;;;20.90;13.30;;;;;;;6.47;90.41;100380.27;110910;245;39966;-58
2023/12/31 09:51:47;;;;;;;19.90;12.70;;;;;;;6.58;90.11;100377.55;110941;245;39759;-54
2023/12/31 09:54:31;;;;;;;22.00;12.90;;;;;;;6.64;89.66;100370.45;110879;245;40559;-53
2023/12/31 09:57:15;;;;;;;20.20;12.20;;;;;;;6.62;89.24;100369.57;110932;245;39824;-54
2023/12/31 09:59:53;;;;;;;17.00;11.20;;;;;;;6.60;88.45;100369.48;110922;245;39236;-57
2023/12/31 10:02:33;;;;;;;17.70;12.60;;;;;;;6.65;88.54;100362.27;110935;245;40152;-57
2023/12/31 10:05:10;;;;;;;19.10;12.00;;;;;;;6.68;88.33;100362.27;110909;245;39554;-54
2023/12/31 10:07:48;;;;;;;17.90;12.60;;;;;;;6.74;88.18;100355.56;110950;245;40283;-54
2023/12/31 10:10:26;;;;;;;17.40;11.70;;;;;;;6.83;87.98;100356.92;110941;245;41186;-58
2023/12/31 10:13:06;;;;;;;20.10;12.30;;;;;;;6.97;88.04;100354.30;110896;245;39788;-58
2023/12/31 10:15:40;;;;;;;19.00;12.50;;;;;;;6.98;87.67;100349.82;110949;245;41366;-53
2023/12/31 10:18:19;;;;;;;20.50;12.70;;;;;;;6.94;87.36;100348.10;110946;245;39971;-54
2023/12/31 10:20:58;;;;;;;19.40;11.30;;;;;;;6.91;87.09;100348.64;110927;245;39919;-56
2023/12/31 10:23:36;;;;;;;16.30;12.40;;;;;;;6.96;86.80;100341.86;110910;245;40555;-54
2023/12/31 10:26:15;;;;;;;17.50;13.80;;;;;;;6.95;86.66;100346.42;110926;246;41091;-58
2023/12/31 10:28:52;;;;;;;16.70;11.70;;;;;;;6.91;86.22;100343.97;110916;246;40247;-57
2023/12/31 10:31:29;;;;;;;18.30;11.90;;;;;;;6.88;86.25;100345.08;110943;245;39705;-52
2023/12/31 10:34:19;;;;;;;17.40;11.70;;;;;;;6.79;86.16;100342.65;110917;245;39598;-54
2023/12/31 10:37:05;;;;;;;18.50;10.70;;;;;;;6.72;86.00;100339.89;110946;245;39772;-59
2023/12/31 10:39:44;;;;;;;18.80;10.80;;;;;;;6.52;85.99;100333.96;110936;245;39835;-58
2023/12/31 10:42:25;;;;;;;14.10;10.10;;;;;;;6.46;85.93;100332.88;110952;245;41063;-63
2023/12/31 10:45:02;;;;;;;15.70;9.30;;;;;;;6.38;85.65;100324.27;110934;245;39437;-58
2023/12/31 10:47:38;;;;;;;19.80;10.20;;;;;;;6.22;85.78;100318.59;110871;245;42333;-58
2023/12/31 10:50:18;;;;;;;16.80;10.00;;;;;;;6.18;85.62;100317.28;110946;245;40823;-57
2023/12/31 10:53:16;;;;;;;16.90;10.80;;;;;;;6.03;85.74;100314.61;111005;245;40756;-58
2023/12/31 10:55:54;;;;;;;16.70;12.20;;;;;;;5.96;85.89;100315.76;110895;245;39422;-55
2023/12/31 10:58:37;;;;;;;20.40;16.70;;;;;;;5.94;85.78;100309.05;110965;245;39339;-55
2023/12/31 11:01:16;;;;;;;17.00;12.30;;;;;;;5.89;85.88;100305.02;110909;245;39733;-55
2023/12/31 11:03:53;;;;;;;19.20;11.70;;;;;;;5.88;85.90;100295.41;110937;245;40611;-55
2023/12/31 11:06:29;;;;;;;18.10;10.10;;;;;;;5.87;85.94;100292.19;111012;245;40104;-58
2023/12/31 11:09:09;;;;;;;19.70;10.10;;;;;;;5.82;85.93;100290.25;111026;245;39125;-58
2023/12/31 11:11:48;;;;;;;15.40;9.20;;;;;;;5.81;85.87;100283.73;110913;245;39648;-56
2023/12/31 11:14:31;;;;;;;13.60;7.60;;;;;;;5.71;85.78;100285.14;110949;245;39276;-55
2023/12/31 11:17:38;;;;;;;19.40;9.20;;;;;;;5.66;85.75;100284.91;110966;245;39417;-58
2023/12/31 11:20:46;;;;;;;13.60;8.70;;;;;;;5.65;85.88;100282.49;110940;245;40005;-57
2023/12/31 11:23:35;;;;;;;16.40;8.70;;;;;;;5.64;86.00;100274.08;110954;245;39110;-54
2023/12/31 11:26:15;;;;;;;14.40;8.50;;;;;;;5.59;86.04;100273.72;110930;245;40575;-55
2023/12/31 11:29:02;;;;;;;14.60;8.70;;;;;;;5.56;85.89;100269.42;111000;245;39994;-55
2023/12/31 11:31:42;;;;;;;17.60;8.70;;;;;;;5.51;85.67;100264.41;110951;245;40812;-58
2023/12/31 11:34:24;;;;;;;16.70;8.30;;;;;;;5.49;85.71;100263.69;110909;245;39174;-57
2023/12/31 11:37:03;;;;;;;17.10;8.80;;;;;;;5.43;85.65;100257.17;110941;245;39608;-57
2023/12/31 11:39:38;;;;;;;14.30;8.50;;;;;;;5.37;85.71;100255.16;110931;245;40477;-59
2023/12/31 11:42:21;;;;;;;16.00;8.40;;;;;;;5.32;85.69;100247.27;110297;245;890208;-58
2023/12/31 11:45:03;;;;;;;14.00;8.10;;;;;;;5.30;85.82;100241.77;110914;246;39836;-58
2023/12/31 11:47:42;;;;;;;17.50;9.80;;;;;;;5.30;85.77;100235.55;110985;245;39656;-59
2023/12/31 11:50:27;;;;;;;16.80;8.80;;;;;;;5.23;85.82;100232.06;110921;245;39658;-58
2023/12/31 11:53:04;;;;;;;15.30;8.10;;;;;;;5.19;85.81;100236.96;110922;245;39510;-58
2023/12/31 11:55:42;;;;;;;17.00;9.10;;;;;;;5.11;85.91;100235.91;110974;245;39405;-57
2023/12/31 11:58:27;;;;;;;20.00;11.20;;;;;;;5.07;85.86;100230.08;110899;245;39755;-58
2023/12/31 12:01:02;;;;;;;14.90;9.60;;;;;;;5.05;86.00;100230.12;110923;245;39835;-55
2023/12/31 12:03:39;;;;;;;16.00;8.70;;;;;;;5.05;86.13;100221.02;110976;245;40360;-54
2023/12/31 12:06:18;;;;;;;17.30;8.80;;;;;;;5.07;86.14;100225.57;110840;245;40366;-58
2023/12/31 12:08:59;;;;;;;16.00;9.40;;;;;;;5.07;86.19;100225.44;110929;245;39719;-58
2023/12/31 12:11:42;;;;;;;15.70;9.30;;;;;;;5.06;86.06;100223.23;110962;246;39151;-54
2023/12/31 12:14:17;;;;;;;16.60;8.90;;;;;;;5.04;86.10;100223.64;110901;245;39002;-55
2023/12/31 12:17:04;;;;;;;22.20;9.80;;;;;;;5.01;86.37;100223.34;110943;245;39247;-54
2023/12/31 12:19:48;;;;;;;15.20;8.00;;;;;;;4.98;86.21;100222.80;110979;245;39177;-54
2023/12/31 12:22:27;;;;;;;22.40;12.70;;;;;;;4.94;86.47;100224.45;110837;245;39639;-58